<?xml version="1.0" encoding="UTF-8" standalone="no" ?>
<gpx xmlns="http://www.topografix.com/GPX/1/1" xmlns:xsi="http://www.w3.org/2001/XMLSchema-instance" xsi:schemaLocation="http://www.topografix.com/GPX/1/1 http://www.topografix.com/GPX/1/1/gpx.xsd" version="1.1" creator="VisuGPX - https://www.visugpx.com">
  <metadata>
    <name>Oise   Silly-Tillard</name>
  </metadata>
  <trk>
    <name><![CDATA[Oise   Silly-Tillard_1]]></name>
    <trkseg>
      <trkpt lat="49.33419" lon="2.17177">
        <ele>79</ele>
        <time>2020-06-11T12:48:51Z</time>
      </trkpt>
      <trkpt lat="49.34124" lon="2.16279">
        <ele>136</ele>
        <time>2020-06-11T13:09:22Z</time>
      </trkpt>
      <trkpt lat="49.3429" lon="2.16577">
        <ele>127</ele>
        <time>2020-06-11T13:15:06Z</time>
      </trkpt>
      <trkpt lat="49.3509" lon="2.16309">
        <ele>102</ele>
        <time>2020-06-11T13:33:43Z</time>
      </trkpt>
      <trkpt lat="49.3545" lon="2.15998">
        <ele>109</ele>
        <time>2020-06-11T13:42:58Z</time>
      </trkpt>
      <trkpt lat="49.35423" lon="2.1547">
        <ele>111</ele>
        <time>2020-06-11T13:51:43Z</time>
      </trkpt>
      <trkpt lat="49.3569" lon="2.15146">
        <ele>115</ele>
        <time>2020-06-11T13:59:44Z</time>
      </trkpt>
      <trkpt lat="49.35569" lon="2.14845">
        <ele>122</ele>
        <time>2020-06-11T14:04:59Z</time>
      </trkpt>
      <trkpt lat="49.35707" lon="2.14094">
        <ele>115</ele>
        <time>2020-06-11T14:16:28Z</time>
      </trkpt>
      <trkpt lat="49.36055" lon="2.13927">
        <ele>104</ele>
        <time>2020-06-11T14:24:53Z</time>
      </trkpt>
      <trkpt lat="49.36128" lon="2.13634">
        <ele>99</ele>
        <time>2020-06-11T14:29:29Z</time>
      </trkpt>
      <trkpt lat="49.35805" lon="2.13433">
        <ele>120</ele>
        <time>2020-06-11T14:37:17Z</time>
      </trkpt>
      <trkpt lat="49.35713" lon="2.13534">
        <ele>121</ele>
        <time>2020-06-11T14:39:50Z</time>
      </trkpt>
      <trkpt lat="49.35734" lon="2.13175">
        <ele>123</ele>
        <time>2020-06-11T14:45:07Z</time>
      </trkpt>
      <trkpt lat="49.35407" lon="2.12918">
        <ele>96</ele>
        <time>2020-06-11T14:53:52Z</time>
      </trkpt>
      <trkpt lat="49.35134" lon="2.1327">
        <ele>105</ele>
        <time>2020-06-11T15:02:18Z</time>
      </trkpt>
      <trkpt lat="49.35286" lon="2.13643">
        <ele>117</ele>
        <time>2020-06-11T15:09:00Z</time>
      </trkpt>
      <trkpt lat="49.34979" lon="2.1411">
        <ele>120</ele>
        <time>2020-06-11T15:18:41Z</time>
      </trkpt>
      <trkpt lat="49.34933" lon="2.144">
        <ele>124</ele>
        <time>2020-06-11T15:23:01Z</time>
      </trkpt>
      <trkpt lat="49.34245" lon="2.15333">
        <ele>125</ele>
        <time>2020-06-11T15:43:35Z</time>
      </trkpt>
      <trkpt lat="49.33904" lon="2.15595">
        <ele>140</ele>
        <time>2020-06-11T15:52:16Z</time>
      </trkpt>
      <trkpt lat="49.33805" lon="2.15265">
        <ele>146</ele>
        <time>2020-06-11T15:57:43Z</time>
      </trkpt>
      <trkpt lat="49.33282" lon="2.15439">
        <ele>100</ele>
        <time>2020-06-11T16:09:46Z</time>
      </trkpt>
      <trkpt lat="49.33281" lon="2.15603">
        <ele>96</ele>
        <time>2020-06-11T16:12:17Z</time>
      </trkpt>
      <trkpt lat="49.33278" lon="2.15444">
        <ele>100</ele>
        <time>2020-06-11T16:14:39Z</time>
      </trkpt>
      <trkpt lat="49.33024" lon="2.15547">
        <ele>103</ele>
        <time>2020-06-11T16:20:38Z</time>
      </trkpt>
      <trkpt lat="49.32716" lon="2.14569">
        <ele>121</ele>
        <time>2020-06-11T16:36:40Z</time>
      </trkpt>
      <trkpt lat="49.3277" lon="2.14059">
        <ele>118</ele>
        <time>2020-06-11T16:44:12Z</time>
      </trkpt>
      <trkpt lat="49.32658" lon="2.14256">
        <ele>113</ele>
        <time>2020-06-11T16:48:04Z</time>
      </trkpt>
      <trkpt lat="49.31909" lon="2.13087">
        <ele>148</ele>
        <time>2020-06-11T17:12:30Z</time>
      </trkpt>
      <trkpt lat="49.31562" lon="2.12074">
        <ele>223</ele>
        <time>2020-06-11T17:30:19Z</time>
      </trkpt>
      <trkpt lat="49.3148" lon="2.12073">
        <ele>224</ele>
        <time>2020-06-11T17:32:10Z</time>
      </trkpt>
      <trkpt lat="49.31314" lon="2.13045">
        <ele>225</ele>
        <time>2020-06-11T17:47:10Z</time>
      </trkpt>
      <trkpt lat="49.30869" lon="2.12449">
        <ele>218</ele>
        <time>2020-06-11T18:00:31Z</time>
      </trkpt>
      <trkpt lat="49.3081" lon="2.12751">
        <ele>223</ele>
        <time>2020-06-11T18:05:10Z</time>
      </trkpt>
      <trkpt lat="49.30946" lon="2.13691">
        <ele>223</ele>
        <time>2020-06-11T18:19:26Z</time>
      </trkpt>
      <trkpt lat="49.30928" lon="2.1433">
        <ele>223</ele>
        <time>2020-06-11T18:28:52Z</time>
      </trkpt>
      <trkpt lat="49.31216" lon="2.14267">
        <ele>206</ele>
        <time>2020-06-11T18:35:44Z</time>
      </trkpt>
      <trkpt lat="49.31478" lon="2.14926">
        <ele>141</ele>
        <time>2020-06-11T18:47:10Z</time>
      </trkpt>
      <trkpt lat="49.31962" lon="2.15744">
        <ele>110</ele>
        <time>2020-06-11T19:03:43Z</time>
      </trkpt>
      <trkpt lat="49.32365" lon="2.15874">
        <ele>99</ele>
        <time>2020-06-11T19:13:33Z</time>
      </trkpt>
      <trkpt lat="49.32664" lon="2.1576">
        <ele>100</ele>
        <time>2020-06-11T19:23:32Z</time>
      </trkpt>
      <trkpt lat="49.32405" lon="2.15796">
        <ele>102</ele>
        <time>2020-06-11T19:29:34Z</time>
      </trkpt>
      <trkpt lat="49.32448" lon="2.16262">
        <ele>100</ele>
        <time>2020-06-11T19:36:46Z</time>
      </trkpt>
      <trkpt lat="49.32367" lon="2.16327">
        <ele>103</ele>
        <time>2020-06-11T19:38:50Z</time>
      </trkpt>
      <trkpt lat="49.3253" lon="2.17855">
        <ele>118</ele>
        <time>2020-06-11T20:01:30Z</time>
      </trkpt>
      <trkpt lat="49.3297" lon="2.17725">
        <ele>112</ele>
        <time>2020-06-11T20:11:41Z</time>
      </trkpt>
      <trkpt lat="49.33365" lon="2.17281">
        <ele>82</ele>
        <time>2020-06-11T20:22:40Z</time>
      </trkpt>
      <trkpt lat="49.33283" lon="2.17402">
        <ele>89</ele>
        <time>2020-06-11T20:25:12Z</time>
      </trkpt>
      <trkpt lat="49.3341" lon="2.17197">
        <ele>81</ele>
        <time>2020-06-11T20:29:18Z</time>
      </trkpt>
    </trkseg>
  </trk>
</gpx>